sensor_id;sensor_type;location;lat;lon;timestamp;pressure;altitude;pressure_sealevel;temperature;humidity
69306;BME280;56427;51.580;4.656;2022-12-18T00:01:45;102751.41;;;-5.57;100.00
69306;BME280;56427;51.580;4.656;2022-12-18T00:04:19;102754.25;;;-5.36;100.00
69306;BME280;56427;51.580;4.656;2022-12-18T00:06:45;102755.94;;;-5.33;100.00
69306;BME280;56427;51.580;4.656;2022-12-18T00:09:11;102745.25;;;-5.13;100.00
69306;BME280;56427;51.580;4.656;2022-12-18T00:11:36;102744.25;;;-5.26;100.00
69306;BME280;56427;51.580;4.656;2022-12-18T00:14:02;102739.97;;;-5.30;100.00
69306;BME280;56427;51.580;4.656;2022-12-18T00:16:28;102750.03;;;-5.35;100.00
69306;BME280;56427;51.580;4.656;2022-12-18T00:18:59;102741.94;;;-5.09;100.00
69306;BME280;56427;51.580;4.656;2022-12-18T00:21:26;102736.34;;;-5.48;100.00
69306;BME280;56427;51.580;4.656;2022-12-18T00:23:52;102737.03;;;-5.58;100.00
69306;BME280;56427;51.580;4.656;2022-12-18T00:26:23;102729.41;;;-5.61;100.00
69306;BME280;56427;51.580;4.656;2022-12-18T00:28:49;102732.22;;;-5.43;100.00
69306;BME280;56427;51.580;4.656;2022-12-18T00:31:18;102731.91;;;-5.63;100.00
69306;BME280;56427;51.580;4.656;2022-12-18T00:33:44;102742.97;;;-5.56;100.00
69306;BME280;56427;51.580;4.656;2022-12-18T00:36:12;102744.31;;;-5.80;100.00
69306;BME280;56427;51.580;4.656;2022-12-18T00:38:39;102747.44;;;-5.95;100.00
69306;BME280;56427;51.580;4.656;2022-12-18T00:41:05;102739.84;;;-5.98;100.00
69306;BME280;56427;51.580;4.656;2022-12-18T00:43:34;102743.41;;;-5.83;100.00
69306;BME280;56427;51.580;4.656;2022-12-18T00:46:00;102735.63;;;-5.97;100.00
69306;BME280;56427;51.580;4.656;2022-12-18T00:48:25;102743.91;;;-6.06;100.00
69306;BME280;56427;51.580;4.656;2022-12-18T00:50:51;102734.59;;;-6.10;100.00
69306;BME280;56427;51.580;4.656;2022-12-18T00:53:16;102735.28;;;-6.19;100.00
69306;BME280;56427;51.580;4.656;2022-12-18T00:55:42;102731.25;;;-6.07;100.00
69306;BME280;56427;51.580;4.656;2022-12-18T00:58:09;102739.56;;;-6.15;100.00
69306;BME280;56427;51.580;4.656;2022-12-18T01:00:34;102739.50;;;-6.19;100.00
69306;BME280;56427;51.580;4.656;2022-12-18T01:02:59;102753.06;;;-6.13;100.00
69306;BME280;56427;51.580;4.656;2022-12-18T01:05:25;102762.41;;;-6.10;100.00
69306;BME280;56427;51.580;4.656;2022-12-18T01:07:51;102763.25;;;-6.09;100.00
69306;BME280;56427;51.580;4.656;2022-12-18T01:10:16;102758.91;;;-6.18;100.00
69306;BME280;56427;51.580;4.656;2022-12-18T01:12:41;102758.78;;;-6.24;100.00
69306;BME280;56427;51.580;4.656;2022-12-18T01:15:07;102749.50;;;-6.24;100.00
69306;BME280;56427;51.580;4.656;2022-12-18T01:17:33;102744.56;;;-6.18;100.00
69306;BME280;56427;51.580;4.656;2022-12-18T01:19:58;102735.91;;;-6.31;100.00
69306;BME280;56427;51.580;4.656;2022-12-18T01:22:24;102735.03;;;-6.34;100.00
69306;BME280;56427;51.580;4.656;2022-12-18T01:24:49;102731.06;;;-6.20;100.00
69306;BME280;56427;51.580;4.656;2022-12-18T01:27:15;102731.50;;;-6.42;100.00
69306;BME280;56427;51.580;4.656;2022-12-18T01:29:40;102729.81;;;-6.42;100.00
69306;BME280;56427;51.580;4.656;2022-12-18T01:32:05;102736.41;;;-6.50;100.00
69306;BME280;56427;51.580;4.656;2022-12-18T01:34:30;102735.72;;;-6.43;100.00
69306;BME280;56427;51.580;4.656;2022-12-18T01:36:56;102729.69;;;-6.48;100.00
69306;BME280;56427;51.580;4.656;2022-12-18T01:39:21;102732.28;;;-6.45;100.00
69306;BME280;56427;51.580;4.656;2022-12-18T01:41:47;102729.63;;;-6.54;100.00
69306;BME280;56427;51.580;4.656;2022-12-18T01:49:50;102732.91;;;-6.57;100.00
69306;BME280;56427;51.580;4.656;2022-12-18T01:52:17;102735.44;;;-6.57;100.00
69306;BME280;56427;51.580;4.656;2022-12-18T01:54:44;102730.28;;;-6.63;100.00
69306;BME280;56427;51.580;4.656;2022-12-18T01:57:11;102733.50;;;-6.70;100.00
69306;BME280;56427;51.580;4.656;2022-12-18T01:59:36;102726.03;;;-6.66;100.00
69306;BME280;56427;51.580;4.656;2022-12-18T02:02:03;102736.19;;;-6.62;100.00
69306;BME280;56427;51.580;4.656;2022-12-18T02:04:28;102736.91;;;-6.68;100.00
69306;BME280;56427;51.580;4.656;2022-12-18T02:07:10;102733.63;;;-6.64;100.00
69306;BME280;56427;51.580;4.656;2022-12-18T02:09:49;102723.66;;;-6.56;100.00
69306;BME280;56427;51.580;4.656;2022-12-18T02:17:36;102721.66;;;-6.73;100.00
69306;BME280;56427;51.580;4.656;2022-12-18T02:20:14;102713.06;;;-6.84;100.00
69306;BME280;56427;51.580;4.656;2022-12-18T02:25:43;102720.59;;;-6.86;100.00
69306;BME280;56427;51.580;4.656;2022-12-18T02:28:15;102722.34;;;-6.81;100.00
69306;BME280;56427;51.580;4.656;2022-12-18T02:30:44;102711.22;;;-6.91;100.00
69306;BME280;56427;51.580;4.656;2022-12-18T02:33:11;102715.34;;;-6.96;100.00
69306;BME280;56427;51.580;4.656;2022-12-18T02:35:38;102719.34;;;-7.06;100.00
69306;BME280;56427;51.580;4.656;2022-12-18T02:38:05;102717.84;;;-6.96;100.00
69306;BME280;56427;51.580;4.656;2022-12-18T02:40:31;102709.19;;;-7.09;100.00
69306;BME280;56427;51.580;4.656;2022-12-18T02:43:11;102708.56;;;-6.99;100.00
69306;BME280;56427;51.580;4.656;2022-12-18T02:45:55;102705.28;;;-6.93;100.00
69306;BME280;56427;51.580;4.656;2022-12-18T02:48:28;102696.09;;;-6.90;100.00
69306;BME280;56427;51.580;4.656;2022-12-18T02:53:45;102690.25;;;-6.89;100.00
69306;BME280;56427;51.580;4.656;2022-12-18T02:56:23;102692.63;;;-6.96;100.00
69306;BME280;56427;51.580;4.656;2022-12-18T02:59:05;102694.22;;;-7.00;100.00
69306;BME280;56427;51.580;4.656;2022-12-18T03:04:16;102685.91;;;-6.94;100.00
69306;BME280;56427;51.580;4.656;2022-12-18T03:06:48;102682.34;;;-7.04;100.00
69306;BME280;56427;51.580;4.656;2022-12-18T03:09:19;102689.13;;;-7.03;100.00
69306;BME280;56427;51.580;4.656;2022-12-18T03:11:54;102682.38;;;-7.03;100.00
69306;BME280;56427;51.580;4.656;2022-12-18T03:14:40;102678.25;;;-7.00;100.00
69306;BME280;56427;51.580;4.656;2022-12-18T03:17:14;102682.28;;;-7.09;100.00
69306;BME280;56427;51.580;4.656;2022-12-18T03:19:42;102690.47;;;-7.19;100.00
69306;BME280;56427;51.580;4.656;2022-12-18T03:22:10;102689.13;;;-7.03;100.00
69306;BME280;56427;51.580;4.656;2022-12-18T03:24:36;102677.88;;;-7.17;100.00
69306;BME280;56427;51.580;4.656;2022-12-18T03:27:07;102672.09;;;-7.13;100.00
69306;BME280;56427;51.580;4.656;2022-12-18T03:32:10;102660.88;;;-7.28;100.00
69306;BME280;56427;51.580;4.656;2022-12-18T03:34:40;102657.47;;;-7.30;100.00
69306;BME280;56427;51.580;4.656;2022-12-18T03:37:07;102650.78;;;-7.28;100.00
69306;BME280;56427;51.580;4.656;2022-12-18T03:39:33;102645.00;;;-7.24;100.00
69306;BME280;56427;51.580;4.656;2022-12-18T03:42:10;102644.50;;;-7.04;100.00
69306;BME280;56427;51.580;4.656;2022-12-18T03:47:35;102647.72;;;-7.13;100.00
69306;BME280;56427;51.580;4.656;2022-12-18T03:55:30;102660.13;;;-7.22;100.00
69306;BME280;56427;51.580;4.656;2022-12-18T03:57:58;102657.75;;;-7.16;100.00
69306;BME280;56427;51.580;4.656;2022-12-18T04:00:24;102659.47;;;-7.13;100.00
69306;BME280;56427;51.580;4.656;2022-12-18T04:02:55;102646.81;;;-7.16;100.00
69306;BME280;56427;51.580;4.656;2022-12-18T04:05:23;102653.41;;;-7.23;100.00
69306;BME280;56427;51.580;4.656;2022-12-18T04:07:51;102652.53;;;-7.25;100.00
69306;BME280;56427;51.580;4.656;2022-12-18T04:10:17;102648.13;;;-7.34;100.00
69306;BME280;56427;51.580;4.656;2022-12-18T04:12:44;102656.59;;;-7.32;100.00
69306;BME280;56427;51.580;4.656;2022-12-18T04:15:10;102652.47;;;-7.28;100.00
69306;BME280;56427;51.580;4.656;2022-12-18T04:17:37;102649.78;;;-7.36;100.00
69306;BME280;56427;51.580;4.656;2022-12-18T04:20:03;102651.19;;;-7.49;100.00
69306;BME280;56427;51.580;4.656;2022-12-18T04:22:29;102647.78;;;-7.10;100.00
69306;BME280;56427;51.580;4.656;2022-12-18T04:24:54;102652.53;;;-7.25;100.00
69306;BME280;56427;51.580;4.656;2022-12-18T04:27:20;102652.16;;;-7.42;100.00
69306;BME280;56427;51.580;4.656;2022-12-18T04:29:45;102649.94;;;-7.28;100.00
69306;BME280;56427;51.580;4.656;2022-12-18T04:32:11;102646.25;;;-7.44;100.00
69306;BME280;56427;51.580;4.656;2022-12-18T04:34:36;102649.66;;;-7.41;100.00
69306;BME280;56427;51.580;4.656;2022-12-18T04:37:02;102652.13;;;-7.44;100.00
69306;BME280;56427;51.580;4.656;2022-12-18T04:39:27;102647.78;;;-7.51;100.00
69306;BME280;56427;51.580;4.656;2022-12-18T04:41:52;102646.72;;;-7.19;100.00
69306;BME280;56427;51.580;4.656;2022-12-18T04:44:17;102650.72;;;-7.31;100.00
69306;BME280;56427;51.580;4.656;2022-12-18T04:46:43;102643.25;;;-7.26;100.00
69306;BME280;56427;51.580;4.656;2022-12-18T04:49:09;102632.44;;;-7.60;100.00
69306;BME280;56427;51.580;4.656;2022-12-18T04:51:36;102628.19;;;-7.64;100.00
69306;BME280;56427;51.580;4.656;2022-12-18T04:54:01;102620.78;;;-7.56;100.00
69306;BME280;56427;51.580;4.656;2022-12-18T04:56:27;102630.88;;;-7.56;100.00
69306;BME280;56427;51.580;4.656;2022-12-18T04:58:52;102642.53;;;-7.60;100.00
69306;BME280;56427;51.580;4.656;2022-12-18T05:01:18;102645.16;;;-7.55;100.00
69306;BME280;56427;51.580;4.656;2022-12-18T05:03:43;102645.44;;;-7.43;100.00
69306;BME280;56427;51.580;4.656;2022-12-18T05:06:09;102647.41;;;-7.28;100.00
69306;BME280;56427;51.580;4.656;2022-12-18T05:08:34;102660.59;;;-7.42;100.00
69306;BME280;56427;51.580;4.656;2022-12-18T05:11:08;102656.06;;;-7.58;100.00
69306;BME280;56427;51.580;4.656;2022-12-18T05:13:35;102655.44;;;-7.46;100.00
69306;BME280;56427;51.580;4.656;2022-12-18T05:16:00;102651.16;;;-7.50;100.00
69306;BME280;56427;51.580;4.656;2022-12-18T05:18:26;102649.53;;;-7.47;100.00
69306;BME280;56427;51.580;4.656;2022-12-18T05:20:53;102650.88;;;-7.64;100.00
69306;BME280;56427;51.580;4.656;2022-12-18T05:23:19;102656.38;;;-7.43;100.00
69306;BME280;56427;51.580;4.656;2022-12-18T05:25:56;102655.28;;;-7.54;100.00
69306;BME280;56427;51.580;4.656;2022-12-18T05:28:23;102649.75;;;-7.37;100.00
69306;BME280;56427;51.580;4.656;2022-12-18T05:30:50;102647.81;;;-7.49;100.00
69306;BME280;56427;51.580;4.656;2022-12-18T05:33:17;102639.84;;;-7.28;100.00
69306;BME280;56427;51.580;4.656;2022-12-18T05:35:44;102645.94;;;-7.60;100.00
69306;BME280;56427;51.580;4.656;2022-12-18T05:38:09;102637.69;;;-7.51;100.00
69306;BME280;56427;51.580;4.656;2022-12-18T05:40:35;102628.97;;;-7.65;100.00
69306;BME280;56427;51.580;4.656;2022-12-18T05:43:02;102638.22;;;-7.66;100.00
69306;BME280;56427;51.580;4.656;2022-12-18T05:45:27;102643.84;;;-7.78;100.00
69306;BME280;56427;51.580;4.656;2022-12-18T05:47:53;102646.31;;;-7.81;100.00
69306;BME280;56427;51.580;4.656;2022-12-18T05:50:18;102641.66;;;-7.62;100.00
69306;BME280;56427;51.580;4.656;2022-12-18T05:52:43;102645.78;;;-7.66;100.00
69306;BME280;56427;51.580;4.656;2022-12-18T05:55:08;102644.16;;;-7.64;100.00
69306;BME280;56427;51.580;4.656;2022-12-18T05:57:34;102665.59;;;-7.83;100.00
69306;BME280;56427;51.580;4.656;2022-12-18T05:59:59;102653.00;;;-7.83;100.00
69306;BME280;56427;51.580;4.656;2022-12-18T06:02:24;102658.25;;;-7.72;100.00
69306;BME280;56427;51.580;4.656;2022-12-18T06:04:50;102641.56;;;-7.67;100.00
69306;BME280;56427;51.580;4.656;2022-12-18T06:07:15;102636.91;;;-7.86;100.00
69306;BME280;56427;51.580;4.656;2022-12-18T06:09:40;102631.84;;;-7.88;100.00
69306;BME280;56427;51.580;4.656;2022-12-18T06:12:06;102627.50;;;-7.95;100.00
69306;BME280;56427;51.580;4.656;2022-12-18T06:14:31;102623.59;;;-7.82;100.00
69306;BME280;56427;51.580;4.656;2022-12-18T06:16:57;102620.63;;;-8.02;100.00
69306;BME280;56427;51.580;4.656;2022-12-18T06:19:22;102618.22;;;-7.96;100.00
69306;BME280;56427;51.580;4.656;2022-12-18T06:21:47;102632.69;;;-7.89;100.00
69306;BME280;56427;51.580;4.656;2022-12-18T06:24:14;102637.47;;;-8.00;100.00
69306;BME280;56427;51.580;4.656;2022-12-18T06:26:39;102627.38;;;-8.00;100.00
69306;BME280;56427;51.580;4.656;2022-12-18T06:29:05;102633.38;;;-7.95;100.00
69306;BME280;56427;51.580;4.656;2022-12-18T06:31:31;102623.22;;;-7.99;100.00
69306;BME280;56427;51.580;4.656;2022-12-18T06:33:56;102618.84;;;-8.06;100.00
69306;BME280;56427;51.580;4.656;2022-12-18T06:36:22;102616.53;;;-7.97;100.00
69306;BME280;56427;51.580;4.656;2022-12-18T06:38:47;102619.13;;;-7.94;100.00
69306;BME280;56427;51.580;4.656;2022-12-18T06:41:19;102613.88;;;-8.03;100.00
69306;BME280;56427;51.580;4.656;2022-12-18T06:43:45;102615.78;;;-7.93;100.00
69306;BME280;56427;51.580;4.656;2022-12-18T06:46:12;102612.50;;;-7.90;100.00
69306;BME280;56427;51.580;4.656;2022-12-18T06:48:37;102595.50;;;-7.99;100.00
69306;BME280;56427;51.580;4.656;2022-12-18T06:51:03;102590.50;;;-7.96;100.00
69306;BME280;56427;51.580;4.656;2022-12-18T06:53:29;102586.47;;;-7.89;100.00
69306;BME280;56427;51.580;4.656;2022-12-18T06:56:06;102584.66;;;-7.95;100.00
69306;BME280;56427;51.580;4.656;2022-12-18T06:58:32;102586.97;;;-8.04;100.00
69306;BME280;56427;51.580;4.656;2022-12-18T07:01:02;102580.19;;;-8.07;100.00
69306;BME280;56427;51.580;4.656;2022-12-18T07:03:28;102578.94;;;-7.86;100.00
69306;BME280;56427;51.580;4.656;2022-12-18T07:05:54;102577.97;;;-7.93;100.00
69306;BME280;56427;51.580;4.656;2022-12-18T07:08:19;102569.09;;;-7.75;100.00
69306;BME280;56427;51.580;4.656;2022-12-18T07:10:45;102564.31;;;-7.65;100.00
69306;BME280;56427;51.580;4.656;2022-12-18T07:13:10;102563.03;;;-7.85;100.00
69306;BME280;56427;51.580;4.656;2022-12-18T07:15:36;102554.16;;;-7.68;100.00
69306;BME280;56427;51.580;4.656;2022-12-18T07:18:01;102548.88;;;-7.79;100.00
69306;BME280;56427;51.580;4.656;2022-12-18T07:20:27;102537.69;;;-7.91;100.00
69306;BME280;56427;51.580;4.656;2022-12-18T07:22:53;102534.16;;;-8.00;100.00
69306;BME280;56427;51.580;4.656;2022-12-18T07:25:18;102526.75;;;-7.92;100.00
69306;BME280;56427;51.580;4.656;2022-12-18T07:27:44;102511.03;;;-7.80;100.00
69306;BME280;56427;51.580;4.656;2022-12-18T07:30:10;102507.72;;;-7.79;100.00
69306;BME280;56427;51.580;4.656;2022-12-18T07:32:35;102508.22;;;-7.96;100.00
69306;BME280;56427;51.580;4.656;2022-12-18T07:35:01;102509.03;;;-7.97;100.00
69306;BME280;56427;51.580;4.656;2022-12-18T07:37:26;102521.13;;;-7.80;100.00
69306;BME280;56427;51.580;4.656;2022-12-18T07:39:51;102526.28;;;-7.74;100.00
69306;BME280;56427;51.580;4.656;2022-12-18T07:42:17;102522.06;;;-7.75;100.00
69306;BME280;56427;51.580;4.656;2022-12-18T07:44:59;102521.22;;;-7.75;100.00
69306;BME280;56427;51.580;4.656;2022-12-18T07:47:25;102526.31;;;-7.72;100.00
69306;BME280;56427;51.580;4.656;2022-12-18T07:49:50;102528.16;;;-7.64;100.00
69306;BME280;56427;51.580;4.656;2022-12-18T07:52:15;102515.59;;;-7.62;100.00
69306;BME280;56427;51.580;4.656;2022-12-18T07:54:41;102520.59;;;-7.64;100.00
69306;BME280;56427;51.580;4.656;2022-12-18T07:57:07;102524.72;;;-7.69;100.00
69306;BME280;56427;51.580;4.656;2022-12-18T07:59:33;102530.72;;;-7.62;100.00
69306;BME280;56427;51.580;4.656;2022-12-18T08:01:58;102531.69;;;-7.55;100.00
69306;BME280;56427;51.580;4.656;2022-12-18T08:04:24;102532.66;;;-7.49;100.00
69306;BME280;56427;51.580;4.656;2022-12-18T08:06:49;102538.00;;;-7.33;100.00
69306;BME280;56427;51.580;4.656;2022-12-18T08:09:15;102525.06;;;-7.50;100.00
69306;BME280;56427;51.580;4.656;2022-12-18T08:11:40;102522.59;;;-7.47;100.00
69306;BME280;56427;51.580;4.656;2022-12-18T08:14:06;102516.84;;;-7.40;100.00
69306;BME280;56427;51.580;4.656;2022-12-18T08:16:31;102517.44;;;-7.06;100.00
69306;BME280;56427;51.580;4.656;2022-12-18T08:18:56;102512.34;;;-7.09;100.00
69306;BME280;56427;51.580;4.656;2022-12-18T08:21:27;102501.03;;;-7.31;100.00
69306;BME280;56427;51.580;4.656;2022-12-18T08:23:55;102489.28;;;-7.29;100.00
69306;BME280;56427;51.580;4.656;2022-12-18T08:26:21;102486.75;;;-7.29;100.00
69306;BME280;56427;51.580;4.656;2022-12-18T08:28:47;102481.97;;;-7.14;100.00
69306;BME280;56427;51.580;4.656;2022-12-18T08:31:12;102493.66;;;-7.19;100.00
69306;BME280;56427;51.580;4.656;2022-12-18T08:33:39;102512.38;;;-7.06;100.00
69306;BME280;56427;51.580;4.656;2022-12-18T08:36:05;102520.81;;;-7.06;100.00
69306;BME280;56427;51.580;4.656;2022-12-18T08:38:34;102527.22;;;-6.76;100.00
69306;BME280;56427;51.580;4.656;2022-12-18T08:41:05;102517.94;;;-6.77;100.00
69306;BME280;56427;51.580;4.656;2022-12-18T08:43:31;102511.25;;;-6.73;100.00
69306;BME280;56427;51.580;4.656;2022-12-18T08:46:15;102507.00;;;-6.77;100.00
69306;BME280;56427;51.580;4.656;2022-12-18T08:48:41;102501.81;;;-6.85;100.00
69306;BME280;56427;51.580;4.656;2022-12-18T08:51:06;102506.22;;;-6.72;100.00
69306;BME280;56427;51.580;4.656;2022-12-18T08:53:32;102508.00;;;-6.66;100.00
69306;BME280;56427;51.580;4.656;2022-12-18T08:55:57;102508.47;;;-6.32;100.00
69306;BME280;56427;51.580;4.656;2022-12-18T08:58:23;102508.28;;;-6.46;100.00
69306;BME280;56427;51.580;4.656;2022-12-18T09:00:48;102505.91;;;-6.35;100.00
69306;BME280;56427;51.580;4.656;2022-12-18T09:03:18;102514.72;;;-6.05;100.00
69306;BME280;56427;51.580;4.656;2022-12-18T09:05:45;102519.78;;;-6.08;100.00
69306;BME280;56427;51.580;4.656;2022-12-18T09:08:11;102513.00;;;-6.09;100.00
69306;BME280;56427;51.580;4.656;2022-12-18T09:10:46;102502.38;;;-5.78;100.00
69306;BME280;56427;51.580;4.656;2022-12-18T09:13:12;102504.00;;;-5.84;100.00
69306;BME280;56427;51.580;4.656;2022-12-18T09:15:41;102501.13;;;-6.14;100.00
69306;BME280;56427;51.580;4.656;2022-12-18T09:18:08;102500.44;;;-6.05;100.00
69306;BME280;56427;51.580;4.656;2022-12-18T09:20:35;102495.78;;;-5.66;100.00
69306;BME280;56427;51.580;4.656;2022-12-18T09:23:00;102496.72;;;-5.58;100.00
69306;BME280;56427;51.580;4.656;2022-12-18T09:25:26;102484.81;;;-5.67;100.00
69306;BME280;56427;51.580;4.656;2022-12-18T09:27:56;102474.59;;;-5.76;100.00
69306;BME280;56427;51.580;4.656;2022-12-18T09:30:22;102466.16;;;-5.77;100.00
69306;BME280;56427;51.580;4.656;2022-12-18T09:32:47;102467.25;;;-5.51;100.00
69306;BME280;56427;51.580;4.656;2022-12-18T09:35:12;102471.34;;;-5.67;100.00
69306;BME280;56427;51.580;4.656;2022-12-18T09:37:39;102466.66;;;-5.29;100.00
69306;BME280;56427;51.580;4.656;2022-12-18T09:40:13;102477.59;;;-5.28;100.00
69306;BME280;56427;51.580;4.656;2022-12-18T09:42:39;102485.16;;;-5.34;100.00
69306;BME280;56427;51.580;4.656;2022-12-18T09:45:08;102486.06;;;-5.25;100.00
69306;BME280;56427;51.580;4.656;2022-12-18T09:47:39;102492.75;;;-5.33;100.00
69306;BME280;56427;51.580;4.656;2022-12-18T09:50:29;102492.84;;;-5.24;100.00
69306;BME280;56427;51.580;4.656;2022-12-18T09:52:59;102498.16;;;-4.96;100.00
69306;BME280;56427;51.580;4.656;2022-12-18T09:55:41;102495.69;;;-4.88;100.00
69306;BME280;56427;51.580;4.656;2022-12-18T09:58:20;102498.97;;;-4.97;100.00
69306;BME280;56427;51.580;4.656;2022-12-18T10:00:51;102494.69;;;-5.04;100.00
69306;BME280;56427;51.580;4.656;2022-12-18T10:03:17;102496.72;;;-4.60;100.00
69306;BME280;56427;51.580;4.656;2022-12-18T10:06:06;102478.94;;;-4.68;100.00
69306;BME280;56427;51.580;4.656;2022-12-18T10:20:13;102454.44;;;-4.66;100.00
69306;BME280;56427;51.580;4.656;2022-12-18T10:22:57;102446.91;;;-4.56;100.00
69306;BME280;56427;51.580;4.656;2022-12-18T10:28:22;102426.72;;;-4.46;100.00
69306;BME280;56427;51.580;4.656;2022-12-18T10:30:48;102420.78;;;-4.48;100.00
69306;BME280;56427;51.580;4.656;2022-12-18T10:33:18;102420.03;;;-4.27;100.00
69306;BME280;56427;51.580;4.656;2022-12-18T10:35:45;102419.09;;;-4.50;100.00
69306;BME280;56427;51.580;4.656;2022-12-18T10:40:58;102404.78;;;-4.37;100.00
69306;BME280;56427;51.580;4.656;2022-12-18T10:46:03;102391.31;;;-4.24;100.00
69306;BME280;56427;51.580;4.656;2022-12-18T10:48:31;102401.53;;;-4.04;100.00
69306;BME280;56427;51.580;4.656;2022-12-18T10:50:59;102407.44;;;-3.97;100.00
69306;BME280;56427;51.580;4.656;2022-12-18T10:53:27;102419.25;;;-4.10;100.00
69306;BME280;56427;51.580;4.656;2022-12-18T10:55:55;102413.28;;;-4.18;100.00
69306;BME280;56427;51.580;4.656;2022-12-18T10:58:36;102407.41;;;-4.07;100.00
69306;BME280;56427;51.580;4.656;2022-12-18T11:03:47;102415.06;;;-3.94;100.00
69306;BME280;56427;51.580;4.656;2022-12-18T11:06:24;102412.47;;;-4.17;100.00
69306;BME280;56427;51.580;4.656;2022-12-18T11:09:19;102409.16;;;-3.95;100.00
69306;BME280;56427;51.580;4.656;2022-12-18T11:11:56;102411.69;;;-3.90;100.00
69306;BME280;56427;51.580;4.656;2022-12-18T11:14:31;102407.50;;;-3.70;100.00
69306;BME280;56427;51.580;4.656;2022-12-18T11:16:59;102407.47;;;-3.93;100.00
69306;BME280;56427;51.580;4.656;2022-12-18T11:19:31;102408.28;;;-3.98;100.00
69306;BME280;56427;51.580;4.656;2022-12-18T11:21:58;102408.31;;;-3.91;100.00
69306;BME280;56427;51.580;4.656;2022-12-18T11:24:35;102404.13;;;-3.76;100.00
69306;BME280;56427;51.580;4.656;2022-12-18T11:27:03;102400.75;;;-3.64;100.00
69306;BME280;56427;51.580;4.656;2022-12-18T11:29:35;102394.00;;;-3.38;100.00
69306;BME280;56427;51.580;4.656;2022-12-18T11:37:40;102367.78;;;-3.38;100.00
69306;BME280;56427;51.580;4.656;2022-12-18T11:40:14;102368.59;;;-3.15;100.00
69306;BME280;56427;51.580;4.656;2022-12-18T11:42:48;102365.25;;;-3.37;100.00
69306;BME280;56427;51.580;4.656;2022-12-18T11:45:20;102371.06;;;-2.79;100.00
69306;BME280;56427;51.580;4.656;2022-12-18T11:47:54;102368.59;;;-3.05;100.00
69306;BME280;56427;51.580;4.656;2022-12-18T11:50:39;102357.63;;;-3.44;100.00
69306;BME280;56427;51.580;4.656;2022-12-18T11:53:11;102349.13;;;-3.17;100.00
69306;BME280;56427;51.580;4.656;2022-12-18T11:55:49;102345.72;;;-3.10;100.00
69306;BME280;56427;51.580;4.656;2022-12-18T12:04:34;102329.59;;;-2.92;100.00
69306;BME280;56427;51.580;4.656;2022-12-18T12:07:18;102327.94;;;-2.96;100.00
69306;BME280;56427;51.580;4.656;2022-12-18T12:10:12;102323.59;;;-2.68;100.00
69306;BME280;56427;51.580;4.656;2022-12-18T12:17:54;102295.69;;;-2.86;100.00
69306;BME280;56427;51.580;4.656;2022-12-18T12:23:05;102303.38;;;-2.97;100.00
69306;BME280;56427;51.580;4.656;2022-12-18T12:25:45;102304.22;;;-2.98;100.00
69306;BME280;56427;51.580;4.656;2022-12-18T12:30:58;102304.13;;;-2.77;100.00
69306;BME280;56427;51.580;4.656;2022-12-18T12:39:30;102299.94;;;-2.87;100.00
69306;BME280;56427;51.580;4.656;2022-12-18T12:41:58;102304.13;;;-2.78;100.00
69306;BME280;56427;51.580;4.656;2022-12-18T12:44:45;102298.13;;;-2.59;100.00
69306;BME280;56427;51.580;4.656;2022-12-18T12:47:26;102277.78;;;-2.55;100.00
69306;BME280;56427;51.580;4.656;2022-12-18T12:49:53;102282.91;;;-2.63;100.00
69306;BME280;56427;51.580;4.656;2022-12-18T12:52:38;102290.59;;;-2.82;100.00
69306;BME280;56427;51.580;4.656;2022-12-18T12:55:14;102278.69;;;-2.67;100.00
69306;BME280;56427;51.580;4.656;2022-12-18T12:57:45;102282.13;;;-2.74;100.00
69306;BME280;56427;51.580;4.656;2022-12-18T13:00:17;102279.59;;;-2.78;100.00
69306;BME280;56427;51.580;4.656;2022-12-18T13:08:05;102254.09;;;-2.62;100.00
69306;BME280;56427;51.580;4.656;2022-12-18T13:10:32;102258.38;;;-2.69;100.00
69306;BME280;56427;51.580;4.656;2022-12-18T13:13:10;102254.81;;;-2.38;100.00
69306;BME280;56427;51.580;4.656;2022-12-18T13:15:39;102254.84;;;-2.46;100.00
69306;BME280;56427;51.580;4.656;2022-12-18T13:25:48;102248.97;;;-2.50;100.00
69306;BME280;56427;51.580;4.656;2022-12-18T13:28:15;102235.47;;;-2.67;100.00
69306;BME280;56427;51.580;4.656;2022-12-18T13:30:54;102234.56;;;-2.54;100.00
69306;BME280;56427;51.580;4.656;2022-12-18T13:35:58;102233.78;;;-2.65;100.00
69306;BME280;56427;51.580;4.656;2022-12-18T13:41:00;102231.16;;;-2.50;100.00
69306;BME280;56427;51.580;4.656;2022-12-18T13:43:33;102223.53;;;-2.51;100.00
69306;BME280;56427;51.580;4.656;2022-12-18T13:49:00;102221.06;;;-2.62;100.00
69306;BME280;56427;51.580;4.656;2022-12-18T13:51:27;102210.81;;;-2.47;100.00
69306;BME280;56427;51.580;4.656;2022-12-18T13:53:57;102217.59;;;-2.50;100.00
69306;BME280;56427;51.580;4.656;2022-12-18T13:56:31;102226.00;;;-2.44;100.00
69306;BME280;56427;51.580;4.656;2022-12-18T13:59:20;102218.44;;;-2.51;100.00
69306;BME280;56427;51.580;4.656;2022-12-18T14:01:50;102215.91;;;-2.48;100.00
69306;BME280;56427;51.580;4.656;2022-12-18T14:04:22;102224.47;;;-2.65;100.00
69306;BME280;56427;51.580;4.656;2022-12-18T14:06:51;102209.13;;;-2.52;100.00
69306;BME280;56427;51.580;4.656;2022-12-18T14:09:24;102212.47;;;-2.47;100.00
69306;BME280;56427;51.580;4.656;2022-12-18T14:11:51;102210.75;;;-2.44;100.00
69306;BME280;56427;51.580;4.656;2022-12-18T14:14:41;102204.03;;;-2.52;100.00
69306;BME280;56427;51.580;4.656;2022-12-18T14:17:10;102207.41;;;-2.47;100.00
69306;BME280;56427;51.580;4.656;2022-12-18T14:19:35;102204.81;;;-2.43;100.00
69306;BME280;56427;51.580;4.656;2022-12-18T14:22:00;102215.16;;;-2.66;100.00
69306;BME280;56427;51.580;4.656;2022-12-18T14:24:26;102197.19;;;-2.38;100.00
69306;BME280;56427;51.580;4.656;2022-12-18T14:26:52;102200.56;;;-2.41;100.00
69306;BME280;56427;51.580;4.656;2022-12-18T14:29:28;102191.94;;;-2.18;100.00
69306;BME280;56427;51.580;4.656;2022-12-18T14:32:07;102190.31;;;-2.25;100.00